Pagrindinis puslapis
METAR-TAF:

METAR-TAF

Oro uostai :

Rygge, Norvegija

platuma: 59-23N, ilguma: 010-47E, Aukštis: 5 m

Dabartinis oras

Ataskaita buvo paskelbta 19 minutes, ne 04:50 UTC
Vėjas 2 kt iš Šiaurės/Šiaurės Rytų
Temperatūra -1°C
Drėgmė 74%
Slėgis 1025 hPa
Matomumas 10 km arba daugiau

METAR: ENRY 100450Z AUTO 03002KT 9999NDV BKN120/// M01/M05 Q1025

Laikas: 07:09 (05:09 UTC)

Prognozė

Prognozė galioja nuo 10 metu 00 UTC su 10 metu 24 UTC
Vėjas 5 kt nuo kintamojo kryptimis
Matomumas 10 km arba daugiau
nėra debesų žemiau 1500 m ir nėra kamuolinių lietaus debesų
Tikimybė 30%
nuo 10 metu 12 UTC su 10 metu 18 UTC
Vėjas 10 kt iš Pietų/Pietvakarių

TAF: ENRY 1000/1024 VRB05KT CAVOK PROB30 1012/1018 21010KT

Orai ataskaitas ir orų prognozės (METAR, TAF).

turimą stotys yra geltonos ir raudonos taškus žemėlapyje.

Perkelti pele per norėdami pamatyti stoties vardą.

Tada spustelėkite, norėdami matyti oro stebėjimo ir prognozės.

Norėdami pakeisti žemėlapį: spustelėkite ant žalios mygtukų su juodo kryžiaus žemyn,; žalią mygtuką su brūkšneliu, jei norite nutolinti; arba žalių rodyklių gretimoms žemėlapius.


METAR-TAF: